Time;durP1;ratioP1;P1;durP2;ratioP2;P2;SDS_P1;SDS_P2;PMS_P1;PMS_P2;Temp;Humidity;BMP_temperature;BMP_pressure;BME280_temperature;BME280_humidity;BME280_pressure;Samples;Min_cycle;Max_cycle;Signal;HPM_P1;HPM_P2
2022/06/29 00:02:18;;;;;;;7.80;3.63;;;;;;;;;;5066383;22;20048;-70
2022/06/29 00:05:04;;;;;;;4.00;3.42;;;;;;;;;;5050756;28;20067;-71
2022/06/29 00:07:51;;;;;;;4.45;3.25;;;;;;;;;;5048112;28;20044;-70
2022/06/29 00:10:37;;;;;;;7.53;3.60;;;;;;;;;;5049402;28;20460;-70
2022/06/29 00:13:22;;;;;;;4.90;3.45;;;;;;;;;;5049438;28;20029;-70
2022/06/29 00:16:08;;;;;;;4.55;3.40;;;;;;;;;;5047887;28;20033;-68
2022/06/29 00:18:54;;;;;;;5.45;3.53;;;;;;;;;;5049977;28;20114;-64
2022/06/29 00:21:39;;;;;;;6.38;4.00;;;;;;;;;;5051014;28;20465;-65
2022/06/29 00:24:25;;;;;;;4.82;3.80;;;;;;;;;;5029679;28;20142;-62
2022/06/29 00:27:10;;;;;;;5.03;3.90;;;;;;;;;;5051140;28;20024;-64
2022/06/29 00:29:56;;;;;;;4.78;3.67;;;;;;;;;;5034040;28;20103;-63
2022/06/29 00:32:41;;;;;;;7.05;3.53;;;;;;;;;;5050071;28;20029;-64
2022/06/29 00:35:27;;;;;;;5.35;3.97;;;;;;;;;;5047929;28;20104;-71
2022/06/29 00:38:12;;;;;;;4.85;3.53;;;;;;;;;;5049304;28;20039;-74
2022/06/29 00:40:58;;;;;;;5.38;3.53;;;;;;;;;;5035465;28;20106;-74
2022/06/29 00:43:43;;;;;;;6.38;4.10;;;;;;;;;;5049760;28;20051;-73
2022/06/29 00:46:29;;;;;;;3.60;3.15;;;;;;;;;;5049979;28;20032;-74
2022/06/29 00:49:15;;;;;;;6.43;4.30;;;;;;;;;;5050468;28;20112;-75
2022/06/29 00:52:03;;;;;;;6.18;3.40;;;;;;;;;;5045030;28;20024;-67
2022/06/29 00:54:53;;;;;;;5.82;3.85;;;;;;;;;;5048772;28;20184;-68
2022/06/29 00:57:42;;;;;;;5.65;3.88;;;;;;;;;;5050964;28;20033;-69
2022/06/29 01:00:27;;;;;;;4.13;3.60;;;;;;;;;;5049075;28;20029;-68
2022/06/29 01:03:13;;;;;;;6.30;3.20;;;;;;;;;;5048383;28;20103;-68
2022/06/29 01:06:00;;;;;;;5.28;3.97;;;;;;;;;;5024800;28;20036;-67
2022/06/29 01:08:45;;;;;;;5.65;4.05;;;;;;;;;;5047121;28;20063;-68
2022/06/29 01:11:32;;;;;;;4.60;3.92;;;;;;;;;;5049347;28;20028;-67
2022/06/29 01:14:17;;;;;;;5.78;4.13;;;;;;;;;;5043178;28;20116;-70
2022/06/29 01:17:03;;;;;;;4.43;3.92;;;;;;;;;;5045100;28;20040;-71
2022/06/29 01:19:49;;;;;;;6.45;3.97;;;;;;;;;;5046249;28;20468;-71
2022/06/29 01:22:35;;;;;;;5.43;4.30;;;;;;;;;;5027812;28;20112;-71
2022/06/29 01:25:20;;;;;;;4.72;3.90;;;;;;;;;;5046330;28;20036;-71
2022/06/29 01:28:06;;;;;;;7.55;4.25;;;;;;;;;;5048773;28;20463;-71
2022/06/29 01:30:51;;;;;;;9.07;4.18;;;;;;;;;;5044808;28;20301;-64
2022/06/29 01:33:37;;;;;;;5.82;4.20;;;;;;;;;;5048373;28;20033;-72
2022/06/29 01:36:23;;;;;;;6.75;4.15;;;;;;;;;;5051174;28;21360;-72
2022/06/29 01:39:09;;;;;;;6.40;4.00;;;;;;;;;;5050981;28;20025;-72
2022/06/29 01:41:54;;;;;;;6.93;4.20;;;;;;;;;;5053216;28;20156;-71
2022/06/29 01:44:40;;;;;;;5.75;4.20;;;;;;;;;;5049250;28;20064;-73
2022/06/29 01:47:26;;;;;;;4.28;3.88;;;;;;;;;;5051129;28;20100;-66
2022/06/29 01:50:11;;;;;;;6.75;4.13;;;;;;;;;;5053132;28;20472;-69
2022/06/29 01:52:57;;;;;;;4.13;3.47;;;;;;;;;;5048901;28;20033;-72
2022/06/29 01:55:46;;;;;;;5.82;3.78;;;;;;;;;;5051469;28;20358;-69
2022/06/29 01:58:32;;;;;;;7.40;3.80;;;;;;;;;;5048657;28;20021;-72
2022/06/29 02:01:17;;;;;;;6.80;4.07;;;;;;;;;;5053218;28;20041;-70
2022/06/29 02:04:03;;;;;;;6.80;3.78;;;;;;;;;;5050210;28;20372;-69
2022/06/29 02:06:48;;;;;;;6.38;4.30;;;;;;;;;;5051756;28;20459;-66
2022/06/29 02:09:34;;;;;;;5.13;3.88;;;;;;;;;;5048286;28;20032;-70
2022/06/29 02:12:19;;;;;;;6.53;4.00;;;;;;;;;;5038342;28;20017;-73
2022/06/29 02:15:07;;;;;;;6.15;3.63;;;;;;;;;;5051283;28;20040;-70
2022/06/29 02:17:53;;;;;;;5.75;4.18;;;;;;;;;;5051438;28;20029;-70
2022/06/29 02:20:38;;;;;;;4.45;3.60;;;;;;;;;;5052072;28;20143;-70
2022/06/29 02:23:24;;;;;;;6.47;4.18;;;;;;;;;;5052394;28;20047;-71
2022/06/29 02:26:09;;;;;;;6.00;3.63;;;;;;;;;;5050993;28;20028;-71
2022/06/29 02:28:55;;;;;;;6.20;3.85;;;;;;;;;;5050467;28;20031;-68
2022/06/29 02:34:46;;;;;;;7.43;4.03;;;;;;;;;;5051506;28;20040;-67
2022/06/29 02:37:31;;;;;;;8.02;4.18;;;;;;;;;;5047636;28;20025;-68
2022/06/29 02:40:17;;;;;;;6.15;4.03;;;;;;;;;;5051776;28;20033;-69
2022/06/29 02:43:03;;;;;;;7.38;4.25;;;;;;;;;;5049603;28;20095;-70
2022/06/29 02:45:48;;;;;;;4.97;3.75;;;;;;;;;;5035129;28;20032;-72
2022/06/29 02:48:34;;;;;;;7.93;4.07;;;;;;;;;;5052018;28;20384;-72
2022/06/29 02:51:19;;;;;;;5.00;3.65;;;;;;;;;;5051772;28;20057;-72
2022/06/29 02:54:05;;;;;;;6.78;3.88;;;;;;;;;;5052088;28;20415;-71
2022/06/29 02:56:51;;;;;;;6.80;4.15;;;;;;;;;;5037666;28;20132;-72
2022/06/29 02:59:36;;;;;;;6.13;4.10;;;;;;;;;;5049894;28;20124;-72
2022/06/29 03:02:22;;;;;;;5.75;4.13;;;;;;;;;;5051680;28;20116;-68
2022/06/29 03:05:08;;;;;;;5.80;4.38;;;;;;;;;;5051387;28;20037;-70
2022/06/29 03:07:53;;;;;;;8.02;4.28;;;;;;;;;;5051653;28;20057;-71
2022/06/29 03:10:39;;;;;;;5.70;3.90;;;;;;;;;;5051428;28;20159;-71
2022/06/29 03:13:25;;;;;;;6.95;4.03;;;;;;;;;;5049859;28;20101;-70
2022/06/29 03:16:10;;;;;;;6.40;4.18;;;;;;;;;;5053036;28;20037;-71
2022/06/29 03:18:56;;;;;;;6.47;3.95;;;;;;;;;;5047778;28;20033;-71
2022/06/29 03:21:41;;;;;;;7.35;4.07;;;;;;;;;;5045134;28;20048;-68
2022/06/29 03:24:27;;;;;;;6.47;3.80;;;;;;;;;;5049053;28;20082;-73
2022/06/29 03:27:12;;;;;;;5.75;4.07;;;;;;;;;;5050765;28;20025;-72
2022/06/29 03:29:58;;;;;;;5.95;4.57;;;;;;;;;;5052019;28;20029;-72
2022/06/29 03:32:44;;;;;;;5.40;4.07;;;;;;;;;;5049703;28;20041;-72
2022/06/29 03:35:29;;;;;;;5.88;4.50;;;;;;;;;;5042560;28;20037;-71
2022/06/29 03:38:15;;;;;;;4.28;3.70;;;;;;;;;;5044668;28;20551;-68
2022/06/29 03:41:00;;;;;;;5.53;4.00;;;;;;;;;;5045254;28;20099;-68
2022/06/29 03:43:46;;;;;;;7.63;4.57;;;;;;;;;;5043406;28;20033;-68
2022/06/29 03:46:31;;;;;;;4.45;3.92;;;;;;;;;;5044898;28;20054;-69
2022/06/29 03:49:17;;;;;;;5.30;3.80;;;;;;;;;;5039991;28;20053;-67
2022/06/29 03:52:03;;;;;;;6.20;4.20;;;;;;;;;;5038887;28;20182;-68
2022/06/29 03:54:48;;;;;;;5.65;4.50;;;;;;;;;;5044469;28;20037;-66
2022/06/29 03:57:34;;;;;;;7.22;4.35;;;;;;;;;;5043348;28;20375;-69
2022/06/29 04:00:19;;;;;;;7.75;3.97;;;;;;;;;;5043499;28;20037;-73
2022/06/29 04:03:05;;;;;;;4.53;3.55;;;;;;;;;;5045046;28;20019;-73
2022/06/29 04:05:50;;;;;;;5.38;4.00;;;;;;;;;;5046107;28;20041;-71
2022/06/29 04:08:37;;;;;;;5.82;3.70;;;;;;;;;;5044626;28;20032;-71
2022/06/29 04:14:27;;;;;;;6.75;4.25;;;;;;;;;;5043045;28;20444;-65
2022/06/29 04:17:12;;;;;;;8.43;4.88;;;;;;;;;;5042265;28;20026;-73
2022/06/29 04:19:58;;;;;;;5.60;4.20;;;;;;;;;;5030438;28;20036;-70
2022/06/29 04:22:43;;;;;;;6.53;4.38;;;;;;;;;;5045778;28;20055;-71
2022/06/29 04:25:29;;;;;;;6.88;4.13;;;;;;;;;;5043539;28;20127;-71
2022/06/29 04:28:15;;;;;;;4.80;3.95;;;;;;;;;;5048067;28;20478;-70
2022/06/29 04:31:01;;;;;;;4.60;3.78;;;;;;;;;;5046322;28;20068;-70
2022/06/29 04:33:46;;;;;;;6.32;4.18;;;;;;;;;;5049558;28;20423;-66
2022/06/29 04:36:32;;;;;;;6.80;4.53;;;;;;;;;;5047163;28;20029;-71
2022/06/29 04:39:18;;;;;;;5.78;4.60;;;;;;;;;;5047185;28;20108;-71
2022/06/29 04:42:03;;;;;;;7.97;4.75;;;;;;;;;;5049697;28;20056;-71
2022/06/29 04:44:49;;;;;;;6.97;4.95;;;;;;;;;;5046398;28;20052;-71
2022/06/29 04:47:35;;;;;;;6.35;4.70;;;;;;;;;;5049702;28;20029;-71
2022/06/29 04:50:20;;;;;;;10.90;4.72;;;;;;;;;;5046149;28;20036;-71
2022/06/29 04:53:06;;;;;;;7.70;5.28;;;;;;;;;;5042579;28;20049;-69
2022/06/29 04:55:52;;;;;;;8.13;4.80;;;;;;;;;;5043737;28;20021;-72
2022/06/29 04:58:37;;;;;;;7.63;4.88;;;;;;;;;;5034671;28;20454;-71
2022/06/29 05:01:24;;;;;;;6.20;4.50;;;;;;;;;;5049100;28;20103;-70
2022/06/29 05:04:09;;;;;;;6.57;4.82;;;;;;;;;;5045648;28;20043;-72
2022/06/29 05:06:55;;;;;;;6.32;4.70;;;;;;;;;;5034591;28;20084;-71
2022/06/29 05:09:40;;;;;;;8.93;4.13;;;;;;;;;;5042130;28;20395;-67
2022/06/29 05:12:26;;;;;;;6.10;4.80;;;;;;;;;;5051896;28;20029;-66
2022/06/29 05:15:11;;;;;;;6.43;4.22;;;;;;;;;;5049921;28;20036;-67
2022/06/29 05:17:57;;;;;;;7.53;4.45;;;;;;;;;;5052870;28;20551;-67
2022/06/29 05:20:43;;;;;;;5.03;4.10;;;;;;;;;;5053634;28;20121;-67
2022/06/29 05:23:30;;;;;;;8.88;5.18;;;;;;;;;;5055481;28;20405;-67
2022/06/29 05:26:16;;;;;;;6.55;4.65;;;;;;;;;;5048621;28;20120;-68
2022/06/29 05:29:01;;;;;;;5.07;4.13;;;;;;;;;;5042818;28;20099;-67
2022/06/29 05:31:47;;;;;;;7.78;4.38;;;;;;;;;;5046941;28;20021;-74
2022/06/29 05:34:32;;;;;;;5.20;4.35;;;;;;;;;;5047090;28;20302;-75
2022/06/29 05:37:18;;;;;;;6.10;4.30;;;;;;;;;;5037699;28;20029;-73
2022/06/29 05:40:04;;;;;;;6.80;4.53;;;;;;;;;;5051763;28;20028;-74
2022/06/29 05:42:50;;;;;;;4.93;4.07;;;;;;;;;;5053421;28;20476;-74
2022/06/29 05:45:35;;;;;;;5.50;3.88;;;;;;;;;;5050372;28;20395;-74
2022/06/29 05:48:21;;;;;;;7.00;4.22;;;;;;;;;;5050340;28;20033;-75
2022/06/29 05:51:07;;;;;;;4.97;4.22;;;;;;;;;;5049793;28;20025;-69
2022/06/29 05:53:52;;;;;;;6.55;4.28;;;;;;;;;;5054674;28;20037;-68
2022/06/29 05:56:38;;;;;;;6.63;5.28;;;;;;;;;;5053140;28;20379;-70
2022/06/29 05:59:23;;;;;;;5.65;4.40;;;;;;;;;;5047850;28;20024;-69
2022/06/29 06:02:09;;;;;;;7.50;4.63;;;;;;;;;;5051726;28;20040;-68
2022/06/29 06:04:54;;;;;;;8.15;4.57;;;;;;;;;;5053428;28;20033;-66
2022/06/29 06:07:40;;;;;;;6.50;4.57;;;;;;;;;;5049724;28;20044;-74
2022/06/29 06:10:25;;;;;;;6.57;4.25;;;;;;;;;;5043809;28;20115;-74
2022/06/29 06:13:11;;;;;;;6.20;4.45;;;;;;;;;;5050533;28;20040;-73
2022/06/29 06:15:57;;;;;;;5.40;4.15;;;;;;;;;;5053266;28;20372;-71
2022/06/29 06:18:42;;;;;;;8.75;4.30;;;;;;;;;;5048270;28;20550;-72
2022/06/29 06:21:28;;;;;;;6.70;4.18;;;;;;;;;;5037638;28;20040;-71
2022/06/29 06:24:13;;;;;;;4.60;3.72;;;;;;;;;;5038403;28;20057;-75
2022/06/29 06:26:59;;;;;;;6.07;3.63;;;;;;;;;;5051308;28;20120;-75
2022/06/29 06:29:45;;;;;;;4.97;3.65;;;;;;;;;;5053410;28;20025;-76
2022/06/29 06:32:31;;;;;;;6.22;4.47;;;;;;;;;;5041677;28;20032;-74
2022/06/29 06:35:19;;;;;;;7.60;4.57;;;;;;;;;;5048024;28;20479;-75
2022/06/29 06:38:04;;;;;;;13.07;5.20;;;;;;;;;;5050090;28;20169;-74
2022/06/29 06:43:55;;;;;;;6.30;4.30;;;;;;;;;;5053255;28;20037;-74
2022/06/29 06:46:46;;;;;;;9.05;5.13;;;;;;;;;;5050505;28;20025;-68
2022/06/29 06:49:32;;;;;;;9.88;4.15;;;;;;;;;;5051891;28;20035;-67
2022/06/29 06:52:17;;;;;;;6.82;4.00;;;;;;;;;;5051618;28;20152;-68
2022/06/29 06:55:03;;;;;;;6.75;4.00;;;;;;;;;;5050067;28;20033;-68
2022/06/29 06:57:49;;;;;;;6.45;3.80;;;;;;;;;;5051743;28;20033;-69
2022/06/29 07:00:34;;;;;;;7.22;3.75;;;;;;;;;;5048351;28;20079;-67
2022/06/29 07:03:20;;;;;;;5.70;3.78;;;;;;;;;;5051411;28;20033;-71
2022/06/29 07:06:06;;;;;;;7.45;3.72;;;;;;;;;;5051909;28;20399;-74
2022/06/29 07:08:54;;;;;;;6.25;3.90;;;;;;;;;;5051503;28;20507;-74
2022/06/29 07:11:39;;;;;;;5.70;3.85;;;;;;;;;;5048501;28;20499;-72
2022/06/29 07:14:25;;;;;;;8.07;3.85;;;;;;;;;;5051876;28;20036;-74
2022/06/29 07:17:10;;;;;;;7.78;3.95;;;;;;;;;;5050996;28;20036;-75
2022/06/29 07:19:56;;;;;;;5.93;3.17;;;;;;;;;;5052328;28;20388;-75
2022/06/29 07:22:41;;;;;;;4.38;3.63;;;;;;;;;;5051207;28;20057;-66
2022/06/29 07:25:27;;;;;;;4.93;3.40;;;;;;;;;;5051438;28;20045;-66
2022/06/29 07:28:13;;;;;;;4.80;3.00;;;;;;;;;;5051896;28;20037;-66
2022/06/29 07:30:58;;;;;;;7.10;3.00;;;;;;;;;;5051526;28;20061;-66
2022/06/29 07:33:44;;;;;;;5.43;3.08;;;;;;;;;;5049855;28;20456;-67
2022/06/29 07:36:30;;;;;;;4.30;3.03;;;;;;;;;;5051200;28;20056;-68
2022/06/29 07:39:15;;;;;;;5.32;3.35;;;;;;;;;;5047175;28;20029;-74
2022/06/29 07:42:01;;;;;;;4.05;3.50;;;;;;;;;;5051704;28;20180;-70
2022/06/29 07:44:47;;;;;;;6.78;3.42;;;;;;;;;;5050230;28;20092;-74
2022/06/29 07:47:33;;;;;;;5.22;3.50;;;;;;;;;;5050384;28;20029;-70
2022/06/29 07:50:18;;;;;;;5.10;3.72;;;;;;;;;;5048830;28;20041;-71
2022/06/29 07:53:04;;;;;;;5.72;3.40;;;;;;;;;;5048849;28;20048;-71
2022/06/29 07:55:49;;;;;;;8.88;3.47;;;;;;;;;;5043748;28;20087;-73
2022/06/29 07:58:35;;;;;;;4.70;3.13;;;;;;;;;;5050455;28;20412;-68
2022/06/29 08:01:20;;;;;;;5.68;3.20;;;;;;;;;;5033854;28;20021;-69
2022/06/29 08:04:06;;;;;;;7.32;3.90;;;;;;;;;;5031656;28;20599;-69
2022/06/29 08:06:52;;;;;;;5.75;3.20;;;;;;;;;;5049796;28;20037;-69
2022/06/29 08:09:37;;;;;;;7.32;3.97;;;;;;;;;;5046544;28;20111;-69
2022/06/29 08:12:23;;;;;;;6.50;3.83;;;;;;;;;;5048816;28;20036;-68
2022/06/29 08:15:09;;;;;;;5.28;4.18;;;;;;;;;;5051313;28;20033;-73
2022/06/29 08:17:54;;;;;;;6.38;4.10;;;;;;;;;;5047926;28;20025;-73
2022/06/29 08:20:40;;;;;;;4.90;4.00;;;;;;;;;;5049297;28;20496;-72
2022/06/29 08:23:26;;;;;;;6.45;4.25;;;;;;;;;;5050786;28;20457;-73
2022/06/29 08:26:11;;;;;;;5.60;3.95;;;;;;;;;;5050980;28;20029;-75
2022/06/29 08:28:57;;;;;;;6.30;4.22;;;;;;;;;;5044196;28;20040;-73
2022/06/29 08:31:42;;;;;;;8.80;3.97;;;;;;;;;;5045751;28;20379;-73
2022/06/29 08:34:39;;;;;;;7.55;4.50;;;;;;;;;;5051866;28;20103;-72
2022/06/29 08:37:25;;;;;;;6.32;3.83;;;;;;;;;;5063072;28;20067;-67
2022/06/29 08:40:13;;;;;;;6.55;4.43;;;;;;;;;;5050403;28;20025;-68
2022/06/29 08:42:59;;;;;;;6.63;4.20;;;;;;;;;;5051242;28;20120;-68
2022/06/29 08:45:45;;;;;;;7.50;3.85;;;;;;;;;;5051382;28;20415;-69
2022/06/29 08:48:30;;;;;;;4.35;3.63;;;;;;;;;;5039140;28;20040;-67
2022/06/29 08:51:18;;;;;;;7.28;4.07;;;;;;;;;;5034477;28;20044;-68
2022/06/29 08:54:07;;;;;;;8.88;4.43;;;;;;;;;;5051194;28;20028;-73
2022/06/29 08:56:53;;;;;;;;;;;;;;;;;;5050977;28;20056;-72
2022/06/29 08:59:38;;;;;;;7.55;4.40;;;;;;;;;;5052249;28;20418;-72
2022/06/29 09:02:24;;;;;;;6.57;4.20;;;;;;;;;;5031404;28;20021;-75
2022/06/29 09:05:09;;;;;;;6.57;4.32;;;;;;;;;;5050027;28;20060;-74
2022/06/29 09:07:55;;;;;;;6.38;4.38;;;;;;;;;;5051615;28;20052;-75
2022/06/29 09:10:41;;;;;;;7.88;4.63;;;;;;;;;;5050590;28;20033;-71
2022/06/29 09:13:26;;;;;;;7.88;4.38;;;;;;;;;;5053025;28;20064;-74
2022/06/29 09:16:12;;;;;;;6.15;4.28;;;;;;;;;;5035528;28;20125;-74
2022/06/29 09:18:57;;;;;;;6.18;4.72;;;;;;;;;;5049575;28;20052;-73
2022/06/29 09:21:47;;;;;;;7.15;4.35;;;;;;;;;;5045592;28;20112;-74
2022/06/29 09:24:33;;;;;;;5.80;4.22;;;;;;;;;;5050661;28;20051;-73
2022/06/29 09:27:18;;;;;;;9.07;4.05;;;;;;;;;;5050499;28;20035;-71
2022/06/29 09:30:04;;;;;;;8.02;4.90;;;;;;;;;;5047696;28;20060;-74
2022/06/29 09:33:08;;;;;;;6.13;3.92;;;;;;;;;;5048238;28;20028;-75
2022/06/29 09:36:07;;;;;;;8.05;4.78;;;;;;;;;;5045594;28;20036;-76
2022/06/29 09:38:52;;;;;;;;;;;;;;;;;;5043702;28;20116;-76
2022/06/29 09:41:38;;;;;;;7.85;4.50;;;;;;;;;;5050325;28;19920;-75
2022/06/29 09:44:23;;;;;;;8.00;4.43;;;;;;;;;;5034776;28;20037;-75
2022/06/29 09:47:12;;;;;;;4.88;3.30;;;;;;;;;;5047773;28;20059;-74
2022/06/29 09:50:00;;;;;;;7.18;4.13;;;;;;;;;;5048776;28;20408;-73
2022/06/29 09:52:46;;;;;;;6.68;4.00;;;;;;;;;;5049835;28;20033;-73
2022/06/29 09:55:31;;;;;;;6.97;4.22;;;;;;;;;;5049179;28;20464;-74
2022/06/29 09:58:18;;;;;;;7.57;4.20;;;;;;;;;;5052083;28;20395;-74
2022/06/29 10:04:12;;;;;;;6.80;4.22;;;;;;;;;;5052217;28;20070;-66
2022/06/29 10:06:57;;;;;;;5.95;3.92;;;;;;;;;;5052532;28;20040;-69
2022/06/29 10:09:43;;;;;;;8.77;3.90;;;;;;;;;;5051171;28;20029;-68
2022/06/29 10:15:46;;;;;;;7.50;4.20;;;;;;;;;;5051634;28;20048;-67
2022/06/29 10:18:55;;;;;;;9.15;3.90;;;;;;;;;;5051029;28;20028;-68
2022/06/29 10:21:41;;;;;;;6.50;3.67;;;;;;;;;;5052086;28;20025;-68
2022/06/29 10:24:27;;;;;;;7.78;3.72;;;;;;;;;;5051116;28;20086;-68
2022/06/29 10:27:12;;;;;;;6.68;3.88;;;;;;;;;;5053444;28;20396;-74
2022/06/29 10:30:16;;;;;;;7.30;4.32;;;;;;;;;;5048251;28;20064;-75
2022/06/29 10:33:20;;;;;;;10.43;4.10;;;;;;;;;;5052488;28;20116;-74
2022/06/29 10:36:07;;;;;;;6.32;3.55;;;;;;;;;;5052978;28;20029;-74
2022/06/29 10:39:08;;;;;;;6.25;3.70;;;;;;;;;;5049026;28;20028;-75
2022/06/29 10:44:59;;;;;;;7.60;4.07;;;;;;;;;;5056176;28;20099;-70
2022/06/29 10:47:47;;;;;;;6.63;3.60;;;;;;;;;;5051690;28;20037;-69
2022/06/29 10:50:34;;;;;;;6.28;3.65;;;;;;;;;;5050794;28;20029;-69
2022/06/29 10:53:20;;;;;;;5.65;3.63;;;;;;;;;;5052059;28;20530;-70
2022/06/29 10:56:08;;;;;;;10.07;4.03;;;;;;;;;;5035391;28;20391;-69
2022/06/29 10:58:54;;;;;;;8.50;4.47;;;;;;;;;;5029607;28;20028;-70
2022/06/29 11:01:39;;;;;;;7.55;3.92;;;;;;;;;;5059710;28;20518;-69
2022/06/29 11:04:25;;;;;;;6.68;3.72;;;;;;;;;;5038378;28;20072;-74
2022/06/29 11:13:30;;;;;;;6.05;3.90;;;;;;;;;;4995684;28;20037;-75
2022/06/29 11:16:16;;;;;;;4.28;3.40;;;;;;;;;;5047737;28;20037;-74
2022/06/29 11:19:02;;;;;;;7.78;3.88;;;;;;;;;;5051428;28;20033;-74
2022/06/29 11:22:05;;;;;;;7.85;3.72;;;;;;;;;;5051596;28;20515;-70
2022/06/29 11:24:58;;;;;;;6.43;3.90;;;;;;;;;;5047086;28;20047;-69
2022/06/29 11:27:44;;;;;;;7.60;4.15;;;;;;;;;;5051536;28;20033;-68
2022/06/29 11:30:29;;;;;;;6.45;3.97;;;;;;;;;;5050032;28;20064;-69
2022/06/29 11:33:15;;;;;;;7.32;4.15;;;;;;;;;;5039448;28;20122;-67
2022/06/29 11:36:12;;;;;;;6.00;3.63;;;;;;;;;;5057501;28;20031;-76
2022/06/29 11:39:06;;;;;;;8.60;3.67;;;;;;;;;;5037411;28;20037;-73
2022/06/29 11:45:05;;;;;;;7.65;3.53;;;;;;;;;;5051269;28;20029;-73
2022/06/29 11:47:54;;;;;;;6.72;3.20;;;;;;;;;;5051753;28;20515;-72
2022/06/29 11:50:40;;;;;;;;;;;;;;;;;;5052195;28;20025;-72
2022/06/29 11:53:39;;;;;;;6.68;3.50;;;;;;;;;;5051201;28;19999;-74
2022/06/29 11:56:27;;;;;;;5.13;3.37;;;;;;;;;;5035336;28;20025;-74
2022/06/29 11:59:16;;;;;;;8.37;3.33;;;;;;;;;;5044964;28;20021;-71
2022/06/29 12:02:02;;;;;;;6.05;3.20;;;;;;;;;;5050717;28;20043;-70
2022/06/29 12:04:48;;;;;;;6.88;3.10;;;;;;;;;;5046386;28;20371;-69
2022/06/29 12:07:34;;;;;;;7.30;3.65;;;;;;;;;;5053196;28;20021;-69
2022/06/29 12:10:19;;;;;;;7.40;3.50;;;;;;;;;;5037152;28;20032;-69
2022/06/29 12:13:06;;;;;;;5.60;3.05;;;;;;;;;;5052247;28;20049;-68
2022/06/29 12:15:51;;;;;;;9.57;3.60;;;;;;;;;;5051258;28;20403;-65
2022/06/29 12:18:37;;;;;;;7.35;3.67;;;;;;;;;;5050931;28;20029;-64
2022/06/29 12:21:22;;;;;;;6.15;4.05;;;;;;;;;;5049901;28;20083;-64
2022/06/29 12:24:08;;;;;;;6.40;3.63;;;;;;;;;;5049241;28;20041;-65
2022/06/29 12:26:53;;;;;;;6.00;3.65;;;;;;;;;;5050728;28;20039;-65
2022/06/29 12:29:39;;;;;;;6.70;3.40;;;;;;;;;;5050556;28;20075;-65
2022/06/29 12:32:25;;;;;;;5.18;3.20;;;;;;;;;;5049801;28;20033;-62
2022/06/29 12:35:10;;;;;;;7.45;3.88;;;;;;;;;;5040116;28;20018;-70
2022/06/29 12:37:59;;;;;;;4.13;3.13;;;;;;;;;;5049538;28;20594;-71
2022/06/29 12:40:44;;;;;;;11.10;3.20;;;;;;;;;;5051205;28;20029;-71
2022/06/29 12:43:30;;;;;;;6.32;3.25;;;;;;;;;;5050151;28;20032;-71
2022/06/29 12:46:15;;;;;;;5.40;3.10;;;;;;;;;;5048894;28;20049;-72
2022/06/29 12:49:01;;;;;;;5.55;2.97;;;;;;;;;;5031557;28;20112;-71
2022/06/29 12:51:47;;;;;;;5.57;3.38;;;;;;;;;;5048185;28;20028;-63
2022/06/29 12:54:32;;;;;;;5.50;2.80;;;;;;;;;;5044314;28;20037;-61
2022/06/29 12:57:18;;;;;;;7.13;3.30;;;;;;;;;;5045355;28;20053;-60
2022/06/29 13:00:03;;;;;;;6.72;3.55;;;;;;;;;;5050899;28;20095;-64
2022/06/29 13:02:49;;;;;;;5.40;3.33;;;;;;;;;;5050007;28;20079;-62
2022/06/29 13:05:35;;;;;;;8.10;3.28;;;;;;;;;;5042539;28;20025;-63
2022/06/29 13:08:21;;;;;;;6.85;3.28;;;;;;;;;;5049918;28;20531;-63
2022/06/29 13:11:06;;;;;;;6.18;3.15;;;;;;;;;;5046534;28;20056;-62
2022/06/29 13:13:52;;;;;;;6.05;3.17;;;;;;;;;;5048690;28;20025;-63
2022/06/29 13:16:37;;;;;;;5.60;3.28;;;;;;;;;;5047432;28;20033;-63
2022/06/29 13:19:23;;;;;;;6.55;3.13;;;;;;;;;;5047830;28;20044;-64
2022/06/29 13:22:09;;;;;;;4.55;3.25;;;;;;;;;;5048199;28;20033;-62
2022/06/29 13:24:54;;;;;;;4.93;3.28;;;;;;;;;;5049994;28;20032;-62
2022/06/29 13:27:40;;;;;;;5.72;3.33;;;;;;;;;;5047683;28;20134;-59
2022/06/29 13:30:26;;;;;;;6.28;3.38;;;;;;;;;;5050631;28;20036;-62
2022/06/29 13:33:11;;;;;;;4.68;3.17;;;;;;;;;;5045709;28;20021;-61
2022/06/29 13:35:57;;;;;;;6.75;3.65;;;;;;;;;;5051889;28;20098;-61
2022/06/29 13:38:43;;;;;;;4.80;3.17;;;;;;;;;;5054238;28;20388;-61
2022/06/29 13:41:28;;;;;;;5.82;3.40;;;;;;;;;;5052153;28;20082;-62
2022/06/29 13:44:14;;;;;;;7.97;3.40;;;;;;;;;;5052612;28;20068;-62
2022/06/29 13:47:00;;;;;;;4.38;3.55;;;;;;;;;;5050562;28;20108;-60
2022/06/29 13:49:45;;;;;;;6.85;3.38;;;;;;;;;;5052801;28;20495;-62
2022/06/29 13:52:31;;;;;;;6.95;4.20;;;;;;;;;;5049484;28;20033;-62
2022/06/29 13:55:16;;;;;;;5.93;3.35;;;;;;;;;;5053640;28;20483;-63
2022/06/29 13:58:03;;;;;;;5.13;3.70;;;;;;;;;;5053121;28;20028;-62
2022/06/29 14:00:49;;;;;;;3.50;3.03;;;;;;;;;;5049703;28;20052;-63
2022/06/29 14:03:35;;;;;;;7.68;3.85;;;;;;;;;;5051641;28;20508;-60
2022/06/29 14:06:20;;;;;;;7.05;3.33;;;;;;;;;;5052775;28;20051;-66
2022/06/29 14:09:06;;;;;;;5.03;3.28;;;;;;;;;;5053039;28;20029;-65
2022/06/29 14:11:51;;;;;;;6.97;3.20;;;;;;;;;;5052141;28;20124;-66
2022/06/29 14:14:37;;;;;;;5.18;3.33;;;;;;;;;;5053142;28;20059;-67
2022/06/29 14:17:23;;;;;;;4.47;3.20;;;;;;;;;;5051844;28;20021;-66
2022/06/29 14:20:08;;;;;;;5.03;3.03;;;;;;;;;;5052347;28;20356;-66
2022/06/29 14:22:54;;;;;;;4.10;3.10;;;;;;;;;;5052133;28;20470;-59
2022/06/29 14:25:40;;;;;;;5.25;2.85;;;;;;;;;;5047892;28;20044;-60
2022/06/29 14:28:25;;;;;;;5.20;3.47;;;;;;;;;;5048992;28;20035;-61
2022/06/29 14:31:11;;;;;;;7.05;3.30;;;;;;;;;;5051610;28;20422;-62
2022/06/29 14:33:56;;;;;;;5.43;3.40;;;;;;;;;;5050476;28;20493;-62
2022/06/29 14:36:42;;;;;;;5.70;3.42;;;;;;;;;;5049516;28;20055;-61
2022/06/29 14:39:28;;;;;;;5.50;3.75;;;;;;;;;;5051688;28;20113;-64
2022/06/29 14:42:13;;;;;;;4.93;2.90;;;;;;;;;;5048177;28;20064;-65
2022/06/29 14:44:59;;;;;;;5.78;3.70;;;;;;;;;;5051349;28;20040;-63
2022/06/29 14:47:44;;;;;;;6.85;3.45;;;;;;;;;;5048816;28;20029;-64
2022/06/29 14:50:30;;;;;;;5.97;3.53;;;;;;;;;;5047957;28;20440;-63
2022/06/29 14:53:16;;;;;;;5.72;3.42;;;;;;;;;;5051551;28;20037;-63
2022/06/29 14:56:01;;;;;;;5.13;3.10;;;;;;;;;;5049176;28;20037;-63
2022/06/29 14:58:48;;;;;;;4.88;3.05;;;;;;;;;;5051740;28;20021;-64
2022/06/29 15:01:34;;;;;;;5.28;3.45;;;;;;;;;;5047242;28;20021;-71
2022/06/29 15:04:20;;;;;;;4.63;3.50;;;;;;;;;;5052600;28;20111;-67
2022/06/29 15:07:05;;;;;;;7.45;3.45;;;;;;;;;;5052118;28;20028;-68
2022/06/29 15:09:51;;;;;;;6.65;3.17;;;;;;;;;;5032384;28;20082;-68
2022/06/29 15:12:36;;;;;;;4.35;3.20;;;;;;;;;;5050701;28;20111;-70
2022/06/29 15:15:22;;;;;;;6.68;3.17;;;;;;;;;;5049641;28;20037;-71
2022/06/29 15:18:08;;;;;;;8.02;3.47;;;;;;;;;;5050249;28;20028;-70
2022/06/29 15:20:53;;;;;;;8.20;3.60;;;;;;;;;;5049179;28;20025;-65
2022/06/29 15:23:39;;;;;;;7.78;3.05;;;;;;;;;;5051715;28;20479;-66
2022/06/29 15:26:24;;;;;;;5.28;3.63;;;;;;;;;;5050589;28;20036;-68
2022/06/29 15:29:10;;;;;;;7.03;3.90;;;;;;;;;;5050700;28;20033;-67
2022/06/29 15:31:57;;;;;;;7.43;3.53;;;;;;;;;;5051569;28;20027;-66
2022/06/29 15:40:52;;;;;;;6.32;3.97;;;;;;;;;;5050281;28;20032;-71
2022/06/29 15:43:38;;;;;;;5.90;3.97;;;;;;;;;;5041854;28;20215;-72
2022/06/29 15:46:23;;;;;;;5.55;3.72;;;;;;;;;;5046003;28;20036;-73
2022/06/29 15:49:09;;;;;;;8.52;3.63;;;;;;;;;;5044256;28;20033;-73
2022/06/29 15:51:54;;;;;;;5.72;3.60;;;;;;;;;;5050922;28;20021;-73
2022/06/29 15:57:44;;;;;;;5.63;3.72;;;;;;;;;;5052658;28;20040;-67
2022/06/29 16:00:30;;;;;;;7.43;3.95;;;;;;;;;;5046711;28;20024;-68
2022/06/29 16:03:15;;;;;;;5.55;3.22;;;;;;;;;;5046350;28;20090;-66
2022/06/29 16:06:01;;;;;;;5.25;3.53;;;;;;;;;;5052115;28;20045;-67
2022/06/29 16:08:46;;;;;;;4.68;3.83;;;;;;;;;;5051989;28;20025;-66
2022/06/29 16:14:38;;;;;;;5.32;3.60;;;;;;;;;;5049638;28;20112;-72
2022/06/29 16:17:24;;;;;;;4.60;3.30;;;;;;;;;;5050714;28;20025;-69
2022/06/29 16:20:10;;;;;;;4.97;4.07;;;;;;;;;;5046774;28;20025;-70
2022/06/29 16:22:56;;;;;;;7.20;3.60;;;;;;;;;;5051633;28;20037;-70
2022/06/29 16:25:42;;;;;;;6.65;4.10;;;;;;;;;;5047174;28;20033;-71
2022/06/29 16:28:27;;;;;;;7.63;3.63;;;;;;;;;;5052150;28;20375;-69
2022/06/29 16:31:13;;;;;;;6.25;3.25;;;;;;;;;;5049061;28;20377;-69
2022/06/29 16:33:58;;;;;;;4.45;3.40;;;;;;;;;;5051592;28;20033;-66
2022/06/29 16:36:44;;;;;;;6.53;3.58;;;;;;;;;;5050671;28;20033;-66
2022/06/29 16:39:29;;;;;;;6.55;3.88;;;;;;;;;;5052319;28;20080;-67
2022/06/29 16:42:15;;;;;;;6.22;3.85;;;;;;;;;;5051200;28;20392;-66
2022/06/29 16:45:01;;;;;;;6.20;3.90;;;;;;;;;;5051344;28;20036;-66
2022/06/29 16:47:47;;;;;;;6.43;3.90;;;;;;;;;;5052076;28;20120;-68
2022/06/29 16:50:32;;;;;;;4.03;3.20;;;;;;;;;;5051823;28;20158;-67
2022/06/29 16:53:18;;;;;;;4.35;3.08;;;;;;;;;;5035395;28;20065;-70
2022/06/29 16:56:03;;;;;;;6.45;3.97;;;;;;;;;;5051458;28;20033;-73
2022/06/29 16:58:49;;;;;;;6.00;3.85;;;;;;;;;;5050635;28;20424;-74
2022/06/29 17:01:35;;;;;;;6.45;3.80;;;;;;;;;;5051271;28;20032;-74
2022/06/29 17:04:21;;;;;;;6.78;3.55;;;;;;;;;;5050794;28;20029;-72
2022/06/29 17:07:06;;;;;;;7.25;3.55;;;;;;;;;;5053965;28;20045;-72
2022/06/29 17:09:52;;;;;;;5.32;3.67;;;;;;;;;;5054331;28;20104;-68
2022/06/29 17:12:38;;;;;;;5.13;3.67;;;;;;;;;;5032438;28;20033;-64
2022/06/29 17:15:23;;;;;;;5.25;3.95;;;;;;;;;;5053231;28;20029;-65
2022/06/29 17:18:09;;;;;;;7.72;3.50;;;;;;;;;;5055654;28;20025;-67